Time;durP1;ratioP1;P1;durP2;ratioP2;P2;SDS_P1;SDS_P2;PMS_P1;PMS_P2;Temp;Humidity;BMP_temperature;BMP_pressure;BME280_temperature;BME280_humidity;BME280_pressure;Samples;Min_cycle;Max_cycle;Signal;HPM_P1;HPM_P2
2024/01/08 00:02:09;;;;;;;55.37;37.23;;;;;;;;;;4992563;28;20411;-43
2024/01/08 00:04:35;;;;;;;62.60;39.30;;;;;;;;;;4991629;28;20439;-44
2024/01/08 00:07:00;;;;;;;29.67;26.90;;;;;;;;;;4992210;28;20503;-44
2024/01/08 00:09:26;;;;;;;27.80;25.27;;;;;;;;;;4992305;28;20431;-43
2024/01/08 00:11:52;;;;;;;29.40;26.53;;;;;;;;;;4987176;28;20428;-44
2024/01/08 00:14:18;;;;;;;28.83;25.77;;;;;;;;;;4990255;28;20443;-43
2024/01/08 00:16:44;;;;;;;28.47;25.60;;;;;;;;;;4992492;28;20959;-43
2024/01/08 00:19:10;;;;;;;41.60;32.33;;;;;;;;;;4990772;28;20775;-44
2024/01/08 00:21:36;;;;;;;62.28;39.83;;;;;;;;;;4992274;28;20181;-43
2024/01/08 00:24:02;;;;;;;83.80;43.67;;;;;;;;;;4991248;28;20259;-44
2024/01/08 00:26:28;;;;;;;69.00;40.37;;;;;;;;;;4991989;28;20275;-43
2024/01/08 00:28:54;;;;;;;65.43;41.28;;;;;;;;;;4989504;28;20421;-44
2024/01/08 00:31:20;;;;;;;63.30;40.63;;;;;;;;;;4991232;28;20216;-45
2024/01/08 00:33:46;;;;;;;63.65;39.50;;;;;;;;;;4985937;28;20196;-43
2024/01/08 00:36:12;;;;;;;63.80;40.65;;;;;;;;;;4992190;28;20220;-43
2024/01/08 00:38:38;;;;;;;64.15;40.15;;;;;;;;;;4992206;28;20641;-43
2024/01/08 00:41:04;;;;;;;66.10;40.10;;;;;;;;;;4984012;28;20231;-43
2024/01/08 00:43:30;;;;;;;67.70;41.50;;;;;;;;;;4991375;28;20428;-44
2024/01/08 00:45:56;;;;;;;65.50;40.80;;;;;;;;;;4994475;28;20256;-43
2024/01/08 00:48:22;;;;;;;64.93;39.87;;;;;;;;;;4995558;28;20427;-43
2024/01/08 00:50:48;;;;;;;67.03;40.37;;;;;;;;;;4993191;28;20420;-44
2024/01/08 00:53:14;;;;;;;71.82;41.17;;;;;;;;;;4991420;28;20459;-44
2024/01/08 00:55:40;;;;;;;82.33;44.07;;;;;;;;;;4991574;28;20416;-44
2024/01/08 00:58:06;;;;;;;80.77;43.47;;;;;;;;;;4995909;28;20427;-44
2024/01/08 01:00:32;;;;;;;26.50;24.07;;;;;;;;;;4993601;28;20415;-43
2024/01/08 01:02:58;;;;;;;28.27;25.33;;;;;;;;;;4991067;28;20452;-43
2024/01/08 01:05:24;;;;;;;29.77;26.77;;;;;;;;;;4988885;28;20913;-43
2024/01/08 01:07:50;;;;;;;76.63;41.03;;;;;;;;;;4995381;28;20927;-43
2024/01/08 01:10:16;;;;;;;86.85;44.60;;;;;;;;;;4994771;28;20180;-42
2024/01/08 01:12:42;;;;;;;94.85;49.15;;;;;;;;;;4995399;28;20595;-41
2024/01/08 01:15:08;;;;;;;104.03;46.77;;;;;;;;;;4995992;28;20236;-41
2024/01/08 01:17:34;;;;;;;96.45;47.50;;;;;;;;;;4997022;28;20881;-41
2024/01/08 01:20:00;;;;;;;99.27;45.63;;;;;;;;;;4995592;28;20265;-41
2024/01/08 01:22:26;;;;;;;44.03;31.97;;;;;;;;;;4997768;28;21074;-42
2024/01/08 01:24:51;;;;;;;70.00;39.70;;;;;;;;;;4994776;28;20822;-41
2024/01/08 01:27:17;;;;;;;72.13;41.33;;;;;;;;;;4997927;28;20531;-41
2024/01/08 01:29:43;;;;;;;77.73;41.90;;;;;;;;;;4984682;28;20412;-42
2024/01/08 01:32:10;;;;;;;43.03;33.60;;;;;;;;;;4998384;28;20471;-41
2024/01/08 01:34:37;;;;;;;30.73;27.80;;;;;;;;;;4993315;28;20197;-42
2024/01/08 01:37:03;;;;;;;27.63;25.20;;;;;;;;;;4992979;28;20284;-42
2024/01/08 01:39:29;;;;;;;31.17;28.08;;;;;;;;;;4994851;28;20177;-42
2024/01/08 01:41:55;;;;;;;35.45;26.58;;;;;;;;;;4991877;28;20169;-43
2024/01/08 01:44:21;;;;;;;103.03;42.93;;;;;;;;;;4994120;28;20208;-41
2024/01/08 01:46:48;;;;;;;116.83;50.60;;;;;;;;;;5000991;28;20419;-41
2024/01/08 01:49:16;;;;;;;77.05;42.78;;;;;;;;;;4997237;28;20421;-42
2024/01/08 01:51:42;;;;;;;80.60;43.45;;;;;;;;;;4995672;28;20660;-42
2024/01/08 01:54:10;;;;;;;72.00;41.83;;;;;;;;;;4994267;28;20303;-41
2024/01/08 01:56:36;;;;;;;70.65;41.47;;;;;;;;;;4993722;28;20212;-41
2024/01/08 01:59:03;;;;;;;83.25;41.92;;;;;;;;;;4994567;28;20173;-41
2024/01/08 02:01:30;;;;;;;70.43;39.78;;;;;;;;;;4980898;28;20181;-41
2024/01/08 02:03:56;;;;;;;75.18;41.42;;;;;;;;;;4987785;28;20673;-41
2024/01/08 02:06:23;;;;;;;79.78;42.45;;;;;;;;;;4992124;28;20181;-41
2024/01/08 02:08:49;;;;;;;80.93;42.75;;;;;;;;;;4989403;28;20169;-41
2024/01/08 02:11:15;;;;;;;80.97;41.77;;;;;;;;;;4994235;28;20191;-42
2024/01/08 02:13:41;;;;;;;93.32;43.88;;;;;;;;;;4993053;28;20447;-41
2024/01/08 02:16:07;;;;;;;86.00;41.87;;;;;;;;;;4991689;28;20561;-41
2024/01/08 02:18:33;;;;;;;83.90;40.53;;;;;;;;;;4991249;28;20760;-41
2024/01/08 02:20:59;;;;;;;87.63;41.67;;;;;;;;;;4988902;28;20424;-41
2024/01/08 02:23:25;;;;;;;88.37;44.67;;;;;;;;;;4993205;28;20428;-42
2024/01/08 02:25:51;;;;;;;86.97;43.40;;;;;;;;;;4989621;28;20547;-41
2024/01/08 02:28:17;;;;;;;86.43;43.07;;;;;;;;;;4987862;28;20431;-42
2024/01/08 02:30:43;;;;;;;86.43;42.50;;;;;;;;;;4986969;28;20499;-42
2024/01/08 02:33:09;;;;;;;88.57;43.57;;;;;;;;;;4985915;28;20437;-42
2024/01/08 02:35:36;;;;;;;18.10;16.63;;;;;;;;;;4993629;28;20813;-41
2024/01/08 02:38:02;;;;;;;20.02;18.40;;;;;;;;;;4993776;28;20499;-41
2024/01/08 02:40:28;;;;;;;18.02;16.52;;;;;;;;;;4993953;28;20248;-41
2024/01/08 02:42:54;;;;;;;19.20;17.60;;;;;;;;;;4989835;28;20211;-41
2024/01/08 02:45:20;;;;;;;18.27;16.67;;;;;;;;;;4993529;28;20463;-42
2024/01/08 02:47:46;;;;;;;19.03;17.43;;;;;;;;;;4987606;28;20420;-41
2024/01/08 02:50:12;;;;;;;20.07;18.40;;;;;;;;;;4993623;28;20915;-41
2024/01/08 02:52:38;;;;;;;26.07;23.43;;;;;;;;;;4992829;28;20425;-42
2024/01/08 02:55:04;;;;;;;20.08;18.45;;;;;;;;;;4992542;28;20423;-42
2024/01/08 02:57:30;;;;;;;18.80;17.20;;;;;;;;;;4993398;28;20275;-41
2024/01/08 02:59:56;;;;;;;18.23;16.65;;;;;;;;;;4986048;28;20173;-41
2024/01/08 03:02:23;;;;;;;18.42;16.80;;;;;;;;;;4994260;28;20173;-41
2024/01/08 03:04:49;;;;;;;21.15;19.15;;;;;;;;;;5001722;28;20246;-41
2024/01/08 03:07:20;;;;;;;18.88;17.27;;;;;;;;;;5008055;28;20177;-43
2024/01/08 03:09:46;;;;;;;49.35;31.10;;;;;;;;;;4990725;28;20189;-41
2024/01/08 03:12:12;;;;;;;112.03;44.67;;;;;;;;;;4993412;28;20562;-42
2024/01/08 03:14:38;;;;;;;113.35;45.00;;;;;;;;;;5009347;28;20203;-41
2024/01/08 03:17:04;;;;;;;99.83;42.50;;;;;;;;;;5000044;28;20192;-42
2024/01/08 03:19:30;;;;;;;99.93;43.90;;;;;;;;;;5001933;28;20475;-41
2024/01/08 03:21:56;;;;;;;83.77;41.77;;;;;;;;;;5008322;28;20256;-43
2024/01/08 03:24:22;;;;;;;94.87;42.13;;;;;;;;;;4992952;28;20428;-41
2024/01/08 03:26:48;;;;;;;105.73;44.80;;;;;;;;;;5012841;28;20433;-41
2024/01/08 03:29:14;;;;;;;95.30;41.93;;;;;;;;;;4996476;28;20412;-41
2024/01/08 03:31:41;;;;;;;106.50;44.55;;;;;;;;;;5005063;28;20435;-41
2024/01/08 03:34:07;;;;;;;92.65;40.75;;;;;;;;;;5003812;28;20205;-41
2024/01/08 03:36:33;;;;;;;21.52;19.88;;;;;;;;;;4990919;28;20207;-41
2024/01/08 03:38:59;;;;;;;17.65;16.10;;;;;;;;;;4997489;28;20527;-42
2024/01/08 03:41:25;;;;;;;19.02;17.48;;;;;;;;;;4973725;28;20173;-41
2024/01/08 03:43:51;;;;;;;18.20;16.67;;;;;;;;;;5004557;28;20196;-41
2024/01/08 03:46:17;;;;;;;19.20;17.57;;;;;;;;;;5000555;28;20428;-42
2024/01/08 03:48:43;;;;;;;18.97;17.37;;;;;;;;;;5000396;28;20419;-42
2024/01/08 03:51:09;;;;;;;18.43;16.90;;;;;;;;;;5008671;28;20822;-42
2024/01/08 03:53:35;;;;;;;16.45;14.93;;;;;;;;;;4992201;28;20424;-41
2024/01/08 03:56:01;;;;;;;15.18;13.77;;;;;;;;;;4993062;28;20197;-42
2024/01/08 03:58:27;;;;;;;17.73;16.23;;;;;;;;;;5007830;28;20546;-42
2024/01/08 04:00:53;;;;;;;16.15;14.80;;;;;;;;;;5000863;28;20185;-42
2024/01/08 04:03:19;;;;;;;19.30;17.70;;;;;;;;;;4998973;28;20196;-42
2024/01/08 04:05:45;;;;;;;16.60;15.25;;;;;;;;;;5009032;28;20177;-43
2024/01/08 04:08:12;;;;;;;22.83;20.63;;;;;;;;;;4990807;28;20219;-42
2024/01/08 04:10:38;;;;;;;18.33;16.93;;;;;;;;;;4992131;28;20216;-41
2024/01/08 04:13:07;;;;;;;17.58;16.10;;;;;;;;;;4994012;28;20443;-42
2024/01/08 04:15:33;;;;;;;18.48;16.90;;;;;;;;;;4991819;28;20176;-41
2024/01/08 04:17:59;;;;;;;16.20;14.87;;;;;;;;;;4992504;28;20181;-41
2024/01/08 04:20:25;;;;;;;17.45;15.95;;;;;;;;;;4991540;28;20404;-41
2024/01/08 04:22:51;;;;;;;21.95;19.92;;;;;;;;;;4989999;28;20193;-41
2024/01/08 04:25:17;;;;;;;19.83;18.23;;;;;;;;;;4992193;28;20251;-42
2024/01/08 04:27:44;;;;;;;16.83;15.40;;;;;;;;;;4988962;28;20510;-42
2024/01/08 04:30:10;;;;;;;17.35;15.85;;;;;;;;;;4992089;28;20180;-43
2024/01/08 04:32:36;;;;;;;29.00;26.27;;;;;;;;;;4987284;28;20181;-43
2024/01/08 04:35:03;;;;;;;17.00;15.63;;;;;;;;;;4992187;28;20184;-43
2024/01/08 04:37:29;;;;;;;19.73;18.02;;;;;;;;;;4984232;28;20202;-43
2024/01/08 04:39:55;;;;;;;17.25;15.75;;;;;;;;;;4992392;28;20252;-43
2024/01/08 04:42:21;;;;;;;18.67;17.08;;;;;;;;;;4991717;28;20204;-43
2024/01/08 04:44:47;;;;;;;18.42;17.00;;;;;;;;;;4991049;28;20685;-44
2024/01/08 04:47:13;;;;;;;20.03;18.43;;;;;;;;;;4992376;28;20247;-43
2024/01/08 04:49:40;;;;;;;20.98;19.35;;;;;;;;;;4991424;28;20912;-43
2024/01/08 04:52:06;;;;;;;18.40;16.83;;;;;;;;;;4988800;28;20688;-43
2024/01/08 04:54:32;;;;;;;18.33;16.88;;;;;;;;;;4990869;28;20200;-43
2024/01/08 04:56:58;;;;;;;19.73;18.23;;;;;;;;;;4988237;28;20204;-43
2024/01/08 04:59:24;;;;;;;18.83;17.33;;;;;;;;;;4987262;28;20412;-43
2024/01/08 05:01:51;;;;;;;22.98;21.38;;;;;;;;;;4992131;28;20177;-43
2024/01/08 05:04:17;;;;;;;22.70;21.05;;;;;;;;;;4991331;28;20774;-43
2024/01/08 05:06:44;;;;;;;22.27;20.63;;;;;;;;;;4991813;28;20266;-43
2024/01/08 05:09:10;;;;;;;19.20;17.67;;;;;;;;;;4990826;28;20196;-43
2024/01/08 05:11:36;;;;;;;22.17;20.58;;;;;;;;;;4990591;28;20260;-43
2024/01/08 05:14:04;;;;;;;19.25;17.80;;;;;;;;;;4987545;28;20304;-43
2024/01/08 05:16:30;;;;;;;19.63;18.10;;;;;;;;;;4988164;28;20708;-42
2024/01/08 05:18:56;;;;;;;19.58;17.98;;;;;;;;;;4991996;28;20205;-43
2024/01/08 05:21:22;;;;;;;21.77;20.17;;;;;;;;;;4992101;28;20527;-43
2024/01/08 05:23:48;;;;;;;25.63;23.97;;;;;;;;;;4991325;28;20203;-43
2024/01/08 05:26:14;;;;;;;22.20;20.50;;;;;;;;;;4991477;28;20436;-43
2024/01/08 05:28:40;;;;;;;23.53;21.93;;;;;;;;;;4992196;28;20416;-42
2024/01/08 05:31:06;;;;;;;21.25;19.63;;;;;;;;;;4990778;28;20423;-43
2024/01/08 05:33:32;;;;;;;24.52;22.73;;;;;;;;;;4994456;28;20205;-42
2024/01/08 05:35:58;;;;;;;23.70;22.20;;;;;;;;;;4995186;28;20562;-43
2024/01/08 05:38:25;;;;;;;27.70;25.90;;;;;;;;;;4995486;28;20821;-43
2024/01/08 05:40:51;;;;;;;25.92;24.20;;;;;;;;;;4995579;28;20482;-42
2024/01/08 05:43:17;;;;;;;26.20;24.50;;;;;;;;;;4995727;28;20208;-43
2024/01/08 05:45:43;;;;;;;28.65;26.90;;;;;;;;;;5001593;28;20177;-42
2024/01/08 05:48:09;;;;;;;41.30;39.00;;;;;;;;;;4987494;28;20201;-42
2024/01/08 05:50:34;;;;;;;31.03;29.17;;;;;;;;;;4995725;28;20169;-43
2024/01/08 05:53:00;;;;;;;37.57;35.47;;;;;;;;;;4995247;28;20944;-43
2024/01/08 05:55:26;;;;;;;23.73;22.13;;;;;;;;;;4992483;28;20912;-43
2024/01/08 05:57:53;;;;;;;48.30;45.55;;;;;;;;;;4989228;28;20465;-43
2024/01/08 06:00:19;;;;;;;45.25;42.60;;;;;;;;;;4994281;28;20239;-43
2024/01/08 06:02:45;;;;;;;51.70;47.40;;;;;;;;;;4993221;28;20185;-42
2024/01/08 06:05:11;;;;;;;29.83;28.13;;;;;;;;;;4992474;28;20211;-43
2024/01/08 06:07:37;;;;;;;32.50;30.58;;;;;;;;;;4994702;28;20548;-42
2024/01/08 06:10:04;;;;;;;32.78;27.60;;;;;;;;;;4994911;28;20185;-43
2024/01/08 06:12:30;;;;;;;114.13;47.10;;;;;;;;;;4998905;28;20176;-42
2024/01/08 06:14:57;;;;;;;100.50;41.83;;;;;;;;;;5013508;28;20176;-43
2024/01/08 06:17:23;;;;;;;20.52;19.13;;;;;;;;;;4994717;28;20676;-42
2024/01/08 06:19:49;;;;;;;19.70;18.20;;;;;;;;;;5010531;28;20180;-43
2024/01/08 06:22:15;;;;;;;20.92;19.50;;;;;;;;;;5002093;28;20272;-43
2024/01/08 06:24:41;;;;;;;26.25;24.58;;;;;;;;;;5001663;28;20215;-42
2024/01/08 06:27:07;;;;;;;32.75;30.90;;;;;;;;;;5010060;28;20185;-42
2024/01/08 06:29:34;;;;;;;28.40;26.70;;;;;;;;;;4994425;28;20180;-42
2024/01/08 06:32:00;;;;;;;33.53;31.58;;;;;;;;;;5014139;28;20478;-42
2024/01/08 06:34:26;;;;;;;34.00;32.00;;;;;;;;;;4997552;28;20205;-42
2024/01/08 06:36:52;;;;;;;38.95;36.72;;;;;;;;;;5005387;28;20887;-42
2024/01/08 06:39:18;;;;;;;43.47;41.07;;;;;;;;;;5006434;28;20176;-42
2024/01/08 06:41:44;;;;;;;39.97;37.67;;;;;;;;;;4997748;28;20403;-42
2024/01/08 06:44:10;;;;;;;48.72;45.78;;;;;;;;;;5012628;28;20830;-42
2024/01/08 06:46:36;;;;;;;42.10;39.50;;;;;;;;;;4994327;28;20263;-42
2024/01/08 06:49:02;;;;;;;41.20;38.93;;;;;;;;;;4993031;28;20227;-42
2024/01/08 06:51:28;;;;;;;41.78;39.38;;;;;;;;;;4985892;28;20420;-43
2024/01/08 06:53:54;;;;;;;44.63;42.13;;;;;;;;;;4992589;28;20565;-42
2024/01/08 06:56:20;;;;;;;43.43;40.93;;;;;;;;;;4993226;28;20465;-43
2024/01/08 06:58:47;;;;;;;45.30;42.85;;;;;;;;;;4993635;28;20454;-43
2024/01/08 07:01:15;;;;;;;35.28;33.25;;;;;;;;;;4993087;28;20172;-42
2024/01/08 07:03:42;;;;;;;37.08;34.97;;;;;;;;;;4977919;28;20190;-43
2024/01/08 07:06:08;;;;;;;37.42;35.28;;;;;;;;;;4988388;28;20540;-43
2024/01/08 07:08:33;;;;;;;32.10;30.20;;;;;;;;;;4993029;28;20181;-42
2024/01/08 07:10:59;;;;;;;38.03;35.87;;;;;;;;;;4990665;28;20791;-43
2024/01/08 07:13:25;;;;;;;46.77;44.23;;;;;;;;;;4973187;28;20768;-43
2024/01/08 07:15:52;;;;;;;42.90;40.50;;;;;;;;;;4992505;28;20778;-42
2024/01/08 07:18:18;;;;;;;33.03;31.02;;;;;;;;;;4978925;28;20762;-42
2024/01/08 07:20:44;;;;;;;34.15;32.25;;;;;;;;;;4984717;28;20599;-43
2024/01/08 07:23:11;;;;;;;36.78;34.67;;;;;;;;;;4986162;28;20606;-42
2024/01/08 07:25:40;;;;;;;31.70;29.80;;;;;;;;;;4976423;28;20677;-43
2024/01/08 07:28:10;;;;;;;35.90;33.85;;;;;;;;;;4987395;28;20181;-42
2024/01/08 07:30:37;;;;;;;34.88;32.88;;;;;;;;;;4986513;28;20169;-42
2024/01/08 07:33:03;;;;;;;32.42;30.52;;;;;;;;;;4992168;28;20576;-42
2024/01/08 07:35:29;;;;;;;41.05;37.55;;;;;;;;;;4981890;28;20185;-43
2024/01/08 07:37:55;;;;;;;37.40;33.17;;;;;;;;;;4978116;28;20676;-42
2024/01/08 07:40:30;;;;;;;70.43;42.58;;;;;;;;;;4991484;28;20415;-42
2024/01/08 07:42:57;;;;;;;56.40;41.40;;;;;;;;;;4992041;28;20602;-43
2024/01/08 07:45:23;;;;;;;67.05;42.78;;;;;;;;;;4991687;28;20176;-42
2024/01/08 07:47:49;;;;;;;86.95;46.05;;;;;;;;;;4994360;28;20674;-43
2024/01/08 07:50:15;;;;;;;90.57;45.38;;;;;;;;;;4996016;28;20191;-42
2024/01/08 07:52:41;;;;;;;87.78;46.17;;;;;;;;;;4996491;28;20173;-43
2024/01/08 07:55:08;;;;;;;63.67;42.00;;;;;;;;;;4998025;28;20184;-43
2024/01/08 07:57:34;;;;;;;45.58;34.00;;;;;;;;;;4995133;28;20475;-43
2024/01/08 08:00:00;;;;;;;43.60;35.20;;;;;;;;;;4995437;28;20633;-42
2024/01/08 08:02:26;;;;;;;48.50;40.57;;;;;;;;;;4992633;28;20366;-43
2024/01/08 08:04:53;;;;;;;41.50;36.30;;;;;;;;;;4995109;28;20495;-43
2024/01/08 08:07:19;;;;;;;61.15;41.83;;;;;;;;;;4993961;28;20568;-43
2024/01/08 08:09:45;;;;;;;60.67;38.57;;;;;;;;;;4993756;28;20657;-43
2024/01/08 08:12:12;;;;;;;67.63;40.42;;;;;;;;;;4992450;28;20424;-43
2024/01/08 08:14:38;;;;;;;69.90;50.30;;;;;;;;;;4994332;28;20204;-43
2024/01/08 08:17:04;;;;;;;84.47;42.45;;;;;;;;;;4993862;28;20200;-43
2024/01/08 08:19:30;;;;;;;85.93;43.40;;;;;;;;;;4993728;28;20169;-42
2024/01/08 08:21:56;;;;;;;94.57;41.10;;;;;;;;;;4992458;28;20169;-42
2024/01/08 08:24:23;;;;;;;93.63;41.72;;;;;;;;;;4993770;28;20207;-43
2024/01/08 08:26:49;;;;;;;101.43;42.80;;;;;;;;;;4986636;28;20196;-43
2024/01/08 08:29:16;;;;;;;104.75;43.20;;;;;;;;;;4988338;28;20178;-43
2024/01/08 08:31:42;;;;;;;109.85;44.88;;;;;;;;;;4996150;28;20239;-42
2024/01/08 08:34:09;;;;;;;109.20;44.40;;;;;;;;;;4991368;28;20216;-43
2024/01/08 08:36:37;;;;;;;100.50;43.55;;;;;;;;;;4995397;28;20199;-43
2024/01/08 08:39:03;;;;;;;101.72;42.40;;;;;;;;;;4990321;28;20216;-42
2024/01/08 08:41:29;;;;;;;106.07;43.88;;;;;;;;;;4992277;28;20208;-43
2024/01/08 08:43:57;;;;;;;114.50;46.60;;;;;;;;;;4991465;28;20250;-43
2024/01/08 08:46:23;;;;;;;114.97;46.15;;;;;;;;;;4986184;28;20844;-42
2024/01/08 08:48:49;;;;;;;109.70;43.70;;;;;;;;;;4986422;28;20260;-42
2024/01/08 08:51:15;;;;;;;114.10;46.47;;;;;;;;;;4987285;28;20800;-42
2024/01/08 08:53:41;;;;;;;114.43;49.88;;;;;;;;;;4985088;28;20192;-41
2024/01/08 08:56:09;;;;;;;102.87;48.57;;;;;;;;;;4991906;28;20677;-42
2024/01/08 08:58:35;;;;;;;147.13;56.85;;;;;;;;;;4991666;28;20419;-42
2024/01/08 09:01:00;;;;;;;107.72;47.03;;;;;;;;;;4991917;28;20177;-43
2024/01/08 09:03:26;;;;;;;114.40;49.90;;;;;;;;;;4987028;28;20628;-42
2024/01/08 09:05:52;;;;;;;110.17;47.03;;;;;;;;;;4988526;28;20842;-41
2024/01/08 09:08:18;;;;;;;117.90;50.30;;;;;;;;;;4992916;28;20404;-41
2024/01/08 09:10:44;;;;;;;149.85;57.33;;;;;;;;;;4989894;28;20191;-42
2024/01/08 09:13:12;;;;;;;147.97;59.27;;;;;;;;;;4994679;28;20768;-41
2024/01/08 09:15:37;;;;;;;115.25;50.67;;;;;;;;;;4995044;28;20443;-42
2024/01/08 09:18:03;;;;;;;112.73;51.23;;;;;;;;;;4994506;28;20177;-44
2024/01/08 09:20:30;;;;;;;111.28;49.10;;;;;;;;;;4992936;28;20418;-41
2024/01/08 09:22:56;;;;;;;106.75;49.13;;;;;;;;;;4992236;28;20189;-41
2024/01/08 09:25:22;;;;;;;99.70;48.50;;;;;;;;;;4993158;28;20197;-41
2024/01/08 09:27:48;;;;;;;118.90;53.03;;;;;;;;;;4995449;28;20415;-42
2024/01/08 09:30:13;;;;;;;119.43;53.30;;;;;;;;;;4989571;28;20180;-41
2024/01/08 09:32:39;;;;;;;120.32;59.08;;;;;;;;;;4988198;28;21177;-42
2024/01/08 09:35:06;;;;;;;112.53;51.97;;;;;;;;;;4988382;28;20185;-41
2024/01/08 09:37:32;;;;;;;110.82;52.53;;;;;;;;;;4991588;28;20608;-42
2024/01/08 09:39:57;;;;;;;106.90;50.73;;;;;;;;;;4991044;28;20250;-41
2024/01/08 09:42:27;;;;;;;83.87;49.03;;;;;;;;;;4995063;28;20411;-41
2024/01/08 09:44:56;;;;;;;92.80;50.53;;;;;;;;;;4994638;28;20446;-41
2024/01/08 09:47:23;;;;;;;73.40;45.85;;;;;;;;;;4998038;28;20188;-41
2024/01/08 09:49:49;;;;;;;77.88;48.65;;;;;;;;;;5005247;28;20231;-41
2024/01/08 09:52:15;;;;;;;64.57;46.60;;;;;;;;;;5007874;28;20231;-42
2024/01/08 09:54:44;;;;;;;63.45;46.72;;;;;;;;;;4996478;28;20212;-42
2024/01/08 09:57:10;;;;;;;44.13;38.80;;;;;;;;;;5014213;28;20287;-42
2024/01/08 09:59:36;;;;;;;43.90;39.40;;;;;;;;;;4995545;28;20183;-42
2024/01/08 10:02:04;;;;;;;66.07;45.90;;;;;;;;;;5008834;28;20176;-43
2024/01/08 10:04:31;;;;;;;99.13;49.38;;;;;;;;;;5002399;28;20432;-42
2024/01/08 10:07:06;;;;;;;104.82;50.78;;;;;;;;;;5001257;28;20207;-42
2024/01/08 10:09:33;;;;;;;114.40;51.33;;;;;;;;;;5009954;28;20185;-42
2024/01/08 10:11:59;;;;;;;106.20;49.55;;;;;;;;;;4994031;28;20660;-42
2024/01/08 10:14:28;;;;;;;103.03;48.08;;;;;;;;;;4993746;28;20550;-41
2024/01/08 10:16:55;;;;;;;111.50;51.72;;;;;;;;;;4978409;28;20296;-42
2024/01/08 10:19:23;;;;;;;90.75;46.92;;;;;;;;;;4986742;28;20204;-42
2024/01/08 10:22:06;;;;;;;41.03;38.25;;;;;;;;;;4984484;28;20204;-42
2024/01/08 10:24:32;;;;;;;32.08;28.40;;;;;;;;;;4979675;28;20239;-42
2024/01/08 10:26:58;;;;;;;80.57;49.37;;;;;;;;;;4991420;28;20221;-41
2024/01/08 10:29:24;;;;;;;74.25;48.08;;;;;;;;;;4974468;28;20460;-42
2024/01/08 10:31:50;;;;;;;76.80;48.08;;;;;;;;;;4992877;28;20235;-41
2024/01/08 10:34:16;;;;;;;87.00;52.00;;;;;;;;;;4979328;28;20296;-41
2024/01/08 10:36:43;;;;;;;68.57;52.42;;;;;;;;;;4984458;28;20712;-41
2024/01/08 10:39:10;;;;;;;56.65;44.65;;;;;;;;;;4987691;28;20217;-42
2024/01/08 10:41:36;;;;;;;34.88;32.08;;;;;;;;;;4976767;28;20596;-42
2024/01/08 10:44:03;;;;;;;58.17;45.95;;;;;;;;;;4993247;28;20276;-42
2024/01/08 10:46:31;;;;;;;31.90;29.33;;;;;;;;;;4985802;28;20177;-42
2024/01/08 10:48:59;;;;;;;50.63;45.08;;;;;;;;;;4993215;28;20169;-41
2024/01/08 10:51:25;;;;;;;43.35;39.60;;;;;;;;;;4983545;28;20556;-42
2024/01/08 10:53:53;;;;;;;53.77;48.37;;;;;;;;;;4980052;28;20287;-42
2024/01/08 10:56:20;;;;;;;53.47;46.75;;;;;;;;;;4990811;28;20795;-42
2024/01/08 10:58:50;;;;;;;53.45;47.80;;;;;;;;;;4974256;28;20185;-41
2024/01/08 11:01:17;;;;;;;47.03;42.28;;;;;;;;;;4991055;28;20667;-42
2024/01/08 11:03:43;;;;;;;48.67;43.75;;;;;;;;;;4977416;28;20197;-42
2024/01/08 11:06:10;;;;;;;47.17;42.65;;;;;;;;;;4984955;28;20602;-41
2024/01/08 11:08:36;;;;;;;48.65;43.90;;;;;;;;;;4985970;28;20181;-41
2024/01/08 11:11:09;;;;;;;52.22;47.33;;;;;;;;;;4976574;28;20176;-42
2024/01/08 11:13:36;;;;;;;53.70;48.50;;;;;;;;;;4992160;28;20185;-41
2024/01/08 11:16:06;;;;;;;51.60;46.15;;;;;;;;;;4973664;28;20217;-41
2024/01/08 11:18:32;;;;;;;40.30;36.90;;;;;;;;;;4989786;28;20211;-42
2024/01/08 11:20:59;;;;;;;30.35;28.10;;;;;;;;;;4980738;28;20205;-41
2024/01/08 11:23:38;;;;;;;41.78;38.13;;;;;;;;;;4981511;28;20203;-41
2024/01/08 11:26:10;;;;;;;35.42;32.50;;;;;;;;;;4986699;28;20216;-41
2024/01/08 11:28:37;;;;;;;38.42;35.20;;;;;;;;;;4974395;28;20193;-42
2024/01/08 11:31:22;;;;;;;47.53;43.80;;;;;;;;;;4992141;28;20260;-42
2024/01/08 11:34:03;;;;;;;37.67;34.88;;;;;;;;;;4972732;28;20208;-41
2024/01/08 11:36:49;;;;;;;35.67;32.72;;;;;;;;;;4973573;28;20248;-41
2024/01/08 11:39:19;;;;;;;36.05;33.25;;;;;;;;;;4989382;28;20649;-42
2024/01/08 11:41:46;;;;;;;32.30;29.55;;;;;;;;;;4978442;28;20193;-42
2024/01/08 11:44:14;;;;;;;39.20;36.03;;;;;;;;;;4982637;28;20211;-43
2024/01/08 11:46:41;;;;;;;45.80;41.92;;;;;;;;;;4991910;28;20173;-43
2024/01/08 11:49:07;;;;;;;40.63;37.35;;;;;;;;;;4989700;28;20648;-43
2024/01/08 11:51:33;;;;;;;38.80;35.57;;;;;;;;;;4973452;28;20229;-44
2024/01/08 11:54:08;;;;;;;47.30;43.40;;;;;;;;;;4990505;28;20483;-44
2024/01/08 11:56:34;;;;;;;42.90;39.42;;;;;;;;;;4976940;28;20189;-43
2024/01/08 11:59:00;;;;;;;39.40;36.25;;;;;;;;;;4984318;28;20195;-43
2024/01/08 12:01:28;;;;;;;46.65;42.97;;;;;;;;;;4984684;28;20272;-43
2024/01/08 12:04:00;;;;;;;46.15;42.45;;;;;;;;;;4975717;28;20199;-44
2024/01/08 12:06:29;;;;;;;44.35;40.88;;;;;;;;;;4991851;28;20548;-44
2024/01/08 12:08:55;;;;;;;46.40;42.13;;;;;;;;;;4972858;28;20185;-43
2024/01/08 12:11:25;;;;;;;40.13;36.80;;;;;;;;;;4989217;28;20181;-43
2024/01/08 12:13:51;;;;;;;51.05;47.05;;;;;;;;;;4978457;28;20200;-44
2024/01/08 12:16:17;;;;;;;44.40;40.90;;;;;;;;;;4981505;28;20222;-43
2024/01/08 12:18:43;;;;;;;47.90;43.90;;;;;;;;;;4987183;28;20193;-44
2024/01/08 12:21:10;;;;;;;43.00;39.30;;;;;;;;;;4973493;28;20408;-43
2024/01/08 12:23:36;;;;;;;41.22;37.72;;;;;;;;;;4991454;28;20944;-43
2024/01/08 12:26:03;;;;;;;45.92;41.95;;;;;;;;;;4975422;28;20185;-43
2024/01/08 12:28:29;;;;;;;64.75;59.30;;;;;;;;;;4984949;28;20547;-43
2024/01/08 12:30:55;;;;;;;65.35;59.58;;;;;;;;;;4983361;28;20193;-44
2024/01/08 12:33:21;;;;;;;60.47;54.93;;;;;;;;;;4976334;28;20215;-43
2024/01/08 12:35:52;;;;;;;59.20;54.15;;;;;;;;;;4991323;28;20444;-43
2024/01/08 12:38:19;;;;;;;69.38;63.20;;;;;;;;;;4972782;28;20506;-43
2024/01/08 12:40:45;;;;;;;65.35;59.60;;;;;;;;;;4989913;28;20645;-44
2024/01/08 12:43:11;;;;;;;67.43;61.70;;;;;;;;;;4982267;28;20205;-43
2024/01/08 12:45:37;;;;;;;63.83;58.03;;;;;;;;;;4985178;28;20181;-43
2024/01/08 12:48:03;;;;;;;66.22;60.58;;;;;;;;;;4995435;28;20416;-43
2024/01/08 12:50:29;;;;;;;61.53;56.35;;;;;;;;;;4994961;28;20652;-42
2024/01/08 12:52:55;;;;;;;55.22;51.58;;;;;;;;;;4974517;28;20193;-43
2024/01/08 12:55:21;;;;;;;58.90;54.57;;;;;;;;;;4992343;28;20184;-43
2024/01/08 12:57:47;;;;;;;59.63;55.13;;;;;;;;;;4982886;28;20559;-44
2024/01/08 13:00:13;;;;;;;62.20;56.60;;;;;;;;;;4982875;28;20411;-44
2024/01/08 13:02:39;;;;;;;73.47;66.90;;;;;;;;;;4989879;28;20447;-45
2024/01/08 13:05:05;;;;;;;64.87;59.47;;;;;;;;;;4976309;28;20174;-44
2024/01/08 13:07:31;;;;;;;62.53;57.27;;;;;;;;;;4994624;28;20412;-44
2024/01/08 13:09:57;;;;;;;56.93;52.67;;;;;;;;;;4979420;28;20449;-44
2024/01/08 13:12:23;;;;;;;66.82;61.38;;;;;;;;;;4987543;28;20429;-44
2024/01/08 13:14:49;;;;;;;61.80;56.72;;;;;;;;;;4986977;28;20704;-44
2024/01/08 13:17:16;;;;;;;59.73;55.10;;;;;;;;;;4979646;28;20201;-44
2024/01/08 13:19:42;;;;;;;55.72;51.10;;;;;;;;;;4995288;28;20959;-44
2024/01/08 13:22:08;;;;;;;65.07;59.80;;;;;;;;;;4976165;28;20205;-44
2024/01/08 13:24:34;;;;;;;47.80;44.85;;;;;;;;;;4990398;28;20463;-44
2024/01/08 13:27:00;;;;;;;61.05;56.13;;;;;;;;;;4983538;28;20194;-44
2024/01/08 13:29:26;;;;;;;59.97;55.17;;;;;;;;;;4983191;28;20184;-44
2024/01/08 13:31:52;;;;;;;61.47;56.70;;;;;;;;;;4991773;28;20444;-45
2024/01/08 13:34:18;;;;;;;60.17;55.37;;;;;;;;;;4975016;28;20436;-44
2024/01/08 13:36:44;;;;;;;63.43;58.20;;;;;;;;;;4994564;28;21018;-44
2024/01/08 13:39:10;;;;;;;66.73;61.43;;;;;;;;;;4978509;28;20460;-45
2024/01/08 13:41:38;;;;;;;64.80;59.78;;;;;;;;;;4985263;28;20963;-44
2024/01/08 13:44:04;;;;;;;57.17;52.47;;;;;;;;;;4987083;28;20189;-45
2024/01/08 13:46:30;;;;;;;60.10;55.15;;;;;;;;;;4984671;28;20181;-45
2024/01/08 13:48:57;;;;;;;58.92;55.10;;;;;;;;;;4994479;28;20176;-45
2024/01/08 13:51:23;;;;;;;56.47;51.95;;;;;;;;;;4976145;28;20181;-45
2024/01/08 13:53:50;;;;;;;53.07;48.80;;;;;;;;;;4988286;28;20331;-45
2024/01/08 13:56:16;;;;;;;54.38;50.00;;;;;;;;;;4983812;28;20456;-44
2024/01/08 13:58:42;;;;;;;50.97;46.92;;;;;;;;;;4982072;28;20738;-45
2024/01/08 14:01:08;;;;;;;52.20;48.10;;;;;;;;;;4991844;28;20184;-45
2024/01/08 14:03:34;;;;;;;53.65;49.55;;;;;;;;;;4974660;28;20937;-45
2024/01/08 14:06:02;;;;;;;62.83;57.97;;;;;;;;;;4993606;28;20185;-44
2024/01/08 14:08:28;;;;;;;56.92;52.33;;;;;;;;;;4979902;28;20256;-44
2024/01/08 14:10:54;;;;;;;55.85;51.40;;;;;;;;;;4985613;28;20173;-44
2024/01/08 14:13:20;;;;;;;60.15;55.28;;;;;;;;;;4987098;28;20273;-44